sensor_id;sensor_type;location;lat;lon;timestamp;P1;durP1;ratioP1;P2;durP2;ratioP2
12306;SDS011;6216;51.146;7.008;2024-01-07T00:01:36;6.85;;;6.15;;
12306;SDS011;6216;51.146;7.008;2024-01-07T00:04:05;7.05;;;5.75;;
12306;SDS011;6216;51.146;7.008;2024-01-07T00:06:33;7.28;;;5.93;;
12306;SDS011;6216;51.146;7.008;2024-01-07T00:09:01;6.30;;;5.30;;
12306;SDS011;6216;51.146;7.008;2024-01-07T00:11:29;5.43;;;4.93;;
12306;SDS011;6216;51.146;7.008;2024-01-07T00:13:57;6.10;;;5.50;;
12306;SDS011;6216;51.146;7.008;2024-01-07T00:16:25;6.70;;;6.10;;
12306;SDS011;6216;51.146;7.008;2024-01-07T00:18:53;5.88;;;5.25;;
12306;SDS011;6216;51.146;7.008;2024-01-07T00:21:22;6.00;;;5.40;;
12306;SDS011;6216;51.146;7.008;2024-01-07T00:23:50;6.60;;;5.93;;
12306;SDS011;6216;51.146;7.008;2024-01-07T00:26:18;6.93;;;5.72;;
12306;SDS011;6216;51.146;7.008;2024-01-07T00:28:46;6.25;;;5.65;;
12306;SDS011;6216;51.146;7.008;2024-01-07T00:31:14;7.55;;;5.70;;
12306;SDS011;6216;51.146;7.008;2024-01-07T00:33:42;6.63;;;5.93;;
12306;SDS011;6216;51.146;7.008;2024-01-07T00:36:10;6.07;;;5.47;;
12306;SDS011;6216;51.146;7.008;2024-01-07T00:38:39;6.85;;;6.07;;
12306;SDS011;6216;51.146;7.008;2024-01-07T00:41:07;7.72;;;6.32;;
12306;SDS011;6216;51.146;7.008;2024-01-07T00:43:35;8.73;;;7.15;;
12306;SDS011;6216;51.146;7.008;2024-01-07T00:46:03;8.98;;;6.75;;
12306;SDS011;6216;51.146;7.008;2024-01-07T00:48:31;7.50;;;6.80;;
12306;SDS011;6216;51.146;7.008;2024-01-07T00:51:00;8.23;;;7.13;;
12306;SDS011;6216;51.146;7.008;2024-01-07T00:53:28;6.90;;;6.30;;
12306;SDS011;6216;51.146;7.008;2024-01-07T00:55:57;8.00;;;7.07;;
12306;SDS011;6216;51.146;7.008;2024-01-07T00:58:25;8.02;;;7.22;;
12306;SDS011;6216;51.146;7.008;2024-01-07T01:00:53;9.05;;;7.85;;
12306;SDS011;6216;51.146;7.008;2024-01-07T01:03:21;8.05;;;7.00;;
12306;SDS011;6216;51.146;7.008;2024-01-07T01:05:49;8.77;;;7.88;;
12306;SDS011;6216;51.146;7.008;2024-01-07T01:08:17;8.88;;;7.43;;
12306;SDS011;6216;51.146;7.008;2024-01-07T01:10:45;11.70;;;8.93;;
12306;SDS011;6216;51.146;7.008;2024-01-07T01:13:14;12.65;;;8.98;;
12306;SDS011;6216;51.146;7.008;2024-01-07T01:15:42;10.18;;;9.07;;
12306;SDS011;6216;51.146;7.008;2024-01-07T01:18:10;11.63;;;9.30;;
12306;SDS011;6216;51.146;7.008;2024-01-07T01:20:38;11.32;;;9.60;;
12306;SDS011;6216;51.146;7.008;2024-01-07T01:23:06;11.88;;;10.25;;
12306;SDS011;6216;51.146;7.008;2024-01-07T01:25:34;12.35;;;9.75;;
12306;SDS011;6216;51.146;7.008;2024-01-07T01:28:02;13.20;;;10.00;;
12306;SDS011;6216;51.146;7.008;2024-01-07T01:30:31;13.48;;;10.52;;
12306;SDS011;6216;51.146;7.008;2024-01-07T01:32:59;12.90;;;10.32;;
12306;SDS011;6216;51.146;7.008;2024-01-07T01:35:28;13.25;;;10.13;;
12306;SDS011;6216;51.146;7.008;2024-01-07T01:37:56;11.52;;;9.63;;
12306;SDS011;6216;51.146;7.008;2024-01-07T01:40:24;13.32;;;10.63;;
12306;SDS011;6216;51.146;7.008;2024-01-07T01:42:52;12.25;;;10.00;;
12306;SDS011;6216;51.146;7.008;2024-01-07T01:45:19;14.20;;;11.18;;
12306;SDS011;6216;51.146;7.008;2024-01-07T01:47:49;12.77;;;10.60;;
12306;SDS011;6216;51.146;7.008;2024-01-07T01:50:17;12.75;;;10.77;;
12306;SDS011;6216;51.146;7.008;2024-01-07T01:52:45;11.88;;;9.93;;
12306;SDS011;6216;51.146;7.008;2024-01-07T01:55:13;15.10;;;10.30;;
12306;SDS011;6216;51.146;7.008;2024-01-07T01:57:42;13.98;;;11.00;;
12306;SDS011;6216;51.146;7.008;2024-01-07T02:00:12;13.90;;;10.63;;
12306;SDS011;6216;51.146;7.008;2024-01-07T02:02:40;13.77;;;11.68;;
12306;SDS011;6216;51.146;7.008;2024-01-07T02:05:09;12.98;;;10.68;;
12306;SDS011;6216;51.146;7.008;2024-01-07T02:07:40;13.10;;;11.23;;
12306;SDS011;6216;51.146;7.008;2024-01-07T02:10:08;14.30;;;11.95;;
12306;SDS011;6216;51.146;7.008;2024-01-07T02:12:36;14.02;;;11.00;;
12306;SDS011;6216;51.146;7.008;2024-01-07T02:15:04;12.75;;;10.82;;
12306;SDS011;6216;51.146;7.008;2024-01-07T02:17:33;11.77;;;10.45;;
12306;SDS011;6216;51.146;7.008;2024-01-07T02:20:16;13.77;;;10.98;;
12306;SDS011;6216;51.146;7.008;2024-01-07T02:22:44;13.75;;;11.07;;
12306;SDS011;6216;51.146;7.008;2024-01-07T02:25:13;16.83;;;11.93;;
12306;SDS011;6216;51.146;7.008;2024-01-07T02:27:41;13.95;;;11.50;;
12306;SDS011;6216;51.146;7.008;2024-01-07T02:30:10;19.08;;;13.10;;
12306;SDS011;6216;51.146;7.008;2024-01-07T02:32:38;17.30;;;13.73;;
12306;SDS011;6216;51.146;7.008;2024-01-07T02:35:06;20.27;;;14.18;;
12306;SDS011;6216;51.146;7.008;2024-01-07T02:37:34;21.42;;;15.50;;
12306;SDS011;6216;51.146;7.008;2024-01-07T02:40:02;20.35;;;15.45;;
12306;SDS011;6216;51.146;7.008;2024-01-07T02:42:32;20.15;;;15.27;;
12306;SDS011;6216;51.146;7.008;2024-01-07T02:45:00;18.60;;;14.35;;
12306;SDS011;6216;51.146;7.008;2024-01-07T02:47:28;19.75;;;14.80;;
12306;SDS011;6216;51.146;7.008;2024-01-07T02:49:56;21.70;;;15.18;;
12306;SDS011;6216;51.146;7.008;2024-01-07T02:52:24;21.80;;;15.32;;
12306;SDS011;6216;51.146;7.008;2024-01-07T02:54:52;20.00;;;14.15;;
12306;SDS011;6216;51.146;7.008;2024-01-07T02:57:20;20.85;;;15.77;;
12306;SDS011;6216;51.146;7.008;2024-01-07T02:59:49;19.45;;;14.45;;
12306;SDS011;6216;51.146;7.008;2024-01-07T03:02:17;20.20;;;14.20;;
12306;SDS011;6216;51.146;7.008;2024-01-07T03:04:45;22.88;;;15.43;;
12306;SDS011;6216;51.146;7.008;2024-01-07T03:07:13;17.42;;;13.65;;
12306;SDS011;6216;51.146;7.008;2024-01-07T03:09:41;21.75;;;15.60;;
12306;SDS011;6216;51.146;7.008;2024-01-07T03:12:14;22.13;;;15.07;;
12306;SDS011;6216;51.146;7.008;2024-01-07T03:14:42;19.42;;;15.60;;
12306;SDS011;6216;51.146;7.008;2024-01-07T03:17:11;22.13;;;16.00;;
12306;SDS011;6216;51.146;7.008;2024-01-07T03:19:41;21.17;;;15.40;;
12306;SDS011;6216;51.146;7.008;2024-01-07T03:22:09;21.92;;;15.23;;
12306;SDS011;6216;51.146;7.008;2024-01-07T03:24:37;20.90;;;15.80;;
12306;SDS011;6216;51.146;7.008;2024-01-07T03:27:05;22.58;;;17.15;;
12306;SDS011;6216;51.146;7.008;2024-01-07T03:29:33;23.60;;;18.35;;
12306;SDS011;6216;51.146;7.008;2024-01-07T03:32:02;22.00;;;16.50;;
12306;SDS011;6216;51.146;7.008;2024-01-07T03:34:32;22.58;;;17.08;;
12306;SDS011;6216;51.146;7.008;2024-01-07T03:37:00;22.80;;;16.25;;
12306;SDS011;6216;51.146;7.008;2024-01-07T03:39:28;17.33;;;14.25;;
12306;SDS011;6216;51.146;7.008;2024-01-07T03:41:59;18.00;;;13.40;;
12306;SDS011;6216;51.146;7.008;2024-01-07T03:44:27;16.33;;;12.15;;
12306;SDS011;6216;51.146;7.008;2024-01-07T03:46:55;16.90;;;13.10;;
12306;SDS011;6216;51.146;7.008;2024-01-07T03:49:23;19.17;;;13.38;;
12306;SDS011;6216;51.146;7.008;2024-01-07T03:51:52;20.73;;;14.98;;
12306;SDS011;6216;51.146;7.008;2024-01-07T03:54:20;19.77;;;14.32;;
12306;SDS011;6216;51.146;7.008;2024-01-07T03:56:48;16.50;;;13.38;;
12306;SDS011;6216;51.146;7.008;2024-01-07T03:59:16;18.77;;;14.32;;
12306;SDS011;6216;51.146;7.008;2024-01-07T04:01:43;16.75;;;13.23;;
12306;SDS011;6216;51.146;7.008;2024-01-07T04:04:11;19.73;;;13.15;;
12306;SDS011;6216;51.146;7.008;2024-01-07T04:06:40;16.13;;;12.73;;
12306;SDS011;6216;51.146;7.008;2024-01-07T04:09:10;15.32;;;12.45;;
12306;SDS011;6216;51.146;7.008;2024-01-07T04:11:39;17.02;;;13.77;;
12306;SDS011;6216;51.146;7.008;2024-01-07T04:14:08;19.38;;;14.60;;
12306;SDS011;6216;51.146;7.008;2024-01-07T04:16:35;18.20;;;13.73;;
12306;SDS011;6216;51.146;7.008;2024-01-07T04:19:04;16.40;;;12.85;;
12306;SDS011;6216;51.146;7.008;2024-01-07T04:21:32;16.67;;;13.30;;
12306;SDS011;6216;51.146;7.008;2024-01-07T04:24:00;18.60;;;13.38;;
12306;SDS011;6216;51.146;7.008;2024-01-07T04:26:29;18.55;;;13.43;;
12306;SDS011;6216;51.146;7.008;2024-01-07T04:28:57;16.52;;;12.60;;
12306;SDS011;6216;51.146;7.008;2024-01-07T04:31:25;16.23;;;12.80;;
12306;SDS011;6216;51.146;7.008;2024-01-07T04:33:53;16.50;;;13.52;;
12306;SDS011;6216;51.146;7.008;2024-01-07T04:36:21;16.77;;;12.75;;
12306;SDS011;6216;51.146;7.008;2024-01-07T04:38:49;15.48;;;12.38;;
12306;SDS011;6216;51.146;7.008;2024-01-07T04:41:16;16.17;;;12.48;;
12306;SDS011;6216;51.146;7.008;2024-01-07T04:43:46;17.85;;;13.40;;
12306;SDS011;6216;51.146;7.008;2024-01-07T04:46:13;16.17;;;12.88;;
12306;SDS011;6216;51.146;7.008;2024-01-07T04:48:41;13.55;;;11.50;;
12306;SDS011;6216;51.146;7.008;2024-01-07T04:51:09;17.13;;;12.88;;
12306;SDS011;6216;51.146;7.008;2024-01-07T04:53:37;16.25;;;12.65;;
12306;SDS011;6216;51.146;7.008;2024-01-07T04:56:06;18.50;;;14.15;;
12306;SDS011;6216;51.146;7.008;2024-01-07T04:58:33;17.55;;;13.77;;
12306;SDS011;6216;51.146;7.008;2024-01-07T05:01:03;18.77;;;13.50;;
12306;SDS011;6216;51.146;7.008;2024-01-07T05:03:31;21.98;;;14.38;;
12306;SDS011;6216;51.146;7.008;2024-01-07T05:06:00;18.25;;;14.05;;
12306;SDS011;6216;51.146;7.008;2024-01-07T05:08:28;18.45;;;13.65;;
12306;SDS011;6216;51.146;7.008;2024-01-07T05:10:56;17.83;;;13.80;;
12306;SDS011;6216;51.146;7.008;2024-01-07T05:13:24;18.13;;;14.25;;
12306;SDS011;6216;51.146;7.008;2024-01-07T05:15:52;17.55;;;13.73;;
12306;SDS011;6216;51.146;7.008;2024-01-07T05:18:22;18.73;;;14.77;;
12306;SDS011;6216;51.146;7.008;2024-01-07T05:20:51;16.63;;;13.70;;
12306;SDS011;6216;51.146;7.008;2024-01-07T05:23:19;17.42;;;13.80;;
12306;SDS011;6216;51.146;7.008;2024-01-07T05:25:47;15.57;;;13.55;;
12306;SDS011;6216;51.146;7.008;2024-01-07T05:28:15;17.70;;;13.98;;
12306;SDS011;6216;51.146;7.008;2024-01-07T05:30:45;19.48;;;14.18;;
12306;SDS011;6216;51.146;7.008;2024-01-07T05:33:13;16.30;;;13.07;;
12306;SDS011;6216;51.146;7.008;2024-01-07T05:35:42;15.57;;;12.23;;
12306;SDS011;6216;51.146;7.008;2024-01-07T05:38:10;14.07;;;11.90;;
12306;SDS011;6216;51.146;7.008;2024-01-07T05:40:38;14.90;;;12.07;;
12306;SDS011;6216;51.146;7.008;2024-01-07T05:43:06;14.52;;;11.43;;
12306;SDS011;6216;51.146;7.008;2024-01-07T05:45:34;15.25;;;12.30;;
12306;SDS011;6216;51.146;7.008;2024-01-07T05:48:02;17.38;;;13.60;;
12306;SDS011;6216;51.146;7.008;2024-01-07T05:50:30;17.35;;;13.35;;
12306;SDS011;6216;51.146;7.008;2024-01-07T05:52:59;17.10;;;13.55;;
12306;SDS011;6216;51.146;7.008;2024-01-07T05:55:27;17.33;;;13.60;;
12306;SDS011;6216;51.146;7.008;2024-01-07T05:57:55;18.05;;;13.00;;
12306;SDS011;6216;51.146;7.008;2024-01-07T06:00:23;18.23;;;13.15;;
12306;SDS011;6216;51.146;7.008;2024-01-07T06:02:51;16.88;;;13.63;;
12306;SDS011;6216;51.146;7.008;2024-01-07T06:05:19;17.27;;;13.45;;
12306;SDS011;6216;51.146;7.008;2024-01-07T06:07:47;16.92;;;13.48;;
12306;SDS011;6216;51.146;7.008;2024-01-07T06:10:16;18.92;;;14.15;;
12306;SDS011;6216;51.146;7.008;2024-01-07T06:12:44;18.38;;;14.25;;
12306;SDS011;6216;51.146;7.008;2024-01-07T06:15:12;17.33;;;13.23;;
12306;SDS011;6216;51.146;7.008;2024-01-07T06:17:40;16.95;;;13.07;;
12306;SDS011;6216;51.146;7.008;2024-01-07T06:20:08;17.88;;;13.50;;
12306;SDS011;6216;51.146;7.008;2024-01-07T06:22:37;18.65;;;13.85;;
12306;SDS011;6216;51.146;7.008;2024-01-07T06:25:05;18.25;;;13.57;;
12306;SDS011;6216;51.146;7.008;2024-01-07T06:27:35;15.43;;;12.50;;
12306;SDS011;6216;51.146;7.008;2024-01-07T06:30:03;15.77;;;12.38;;
12306;SDS011;6216;51.146;7.008;2024-01-07T06:32:33;17.60;;;12.50;;
12306;SDS011;6216;51.146;7.008;2024-01-07T06:35:01;14.52;;;11.13;;
12306;SDS011;6216;51.146;7.008;2024-01-07T06:37:30;11.20;;;9.93;;
12306;SDS011;6216;51.146;7.008;2024-01-07T06:39:58;13.77;;;11.30;;
12306;SDS011;6216;51.146;7.008;2024-01-07T06:42:26;12.73;;;11.15;;
12306;SDS011;6216;51.146;7.008;2024-01-07T06:44:56;14.73;;;10.77;;
12306;SDS011;6216;51.146;7.008;2024-01-07T06:47:24;14.75;;;10.93;;
12306;SDS011;6216;51.146;7.008;2024-01-07T06:49:52;13.73;;;10.73;;
12306;SDS011;6216;51.146;7.008;2024-01-07T06:52:20;12.73;;;10.63;;
12306;SDS011;6216;51.146;7.008;2024-01-07T06:54:48;13.98;;;10.85;;
12306;SDS011;6216;51.146;7.008;2024-01-07T06:57:16;14.60;;;11.32;;
12306;SDS011;6216;51.146;7.008;2024-01-07T06:59:43;13.73;;;11.40;;
12306;SDS011;6216;51.146;7.008;2024-01-07T07:02:13;13.25;;;11.20;;
12306;SDS011;6216;51.146;7.008;2024-01-07T07:04:41;14.88;;;11.45;;
12306;SDS011;6216;51.146;7.008;2024-01-07T07:07:09;15.25;;;11.82;;
12306;SDS011;6216;51.146;7.008;2024-01-07T07:09:37;13.93;;;12.10;;
12306;SDS011;6216;51.146;7.008;2024-01-07T07:12:05;16.58;;;12.40;;
12306;SDS011;6216;51.146;7.008;2024-01-07T07:14:34;15.82;;;11.45;;
12306;SDS011;6216;51.146;7.008;2024-01-07T07:17:02;14.00;;;11.95;;
12306;SDS011;6216;51.146;7.008;2024-01-07T07:19:31;15.38;;;12.43;;
12306;SDS011;6216;51.146;7.008;2024-01-07T07:21:59;16.25;;;12.38;;
12306;SDS011;6216;51.146;7.008;2024-01-07T07:24:27;14.07;;;11.80;;
12306;SDS011;6216;51.146;7.008;2024-01-07T07:26:55;14.35;;;11.77;;
12306;SDS011;6216;51.146;7.008;2024-01-07T07:29:23;16.17;;;11.90;;
12306;SDS011;6216;51.146;7.008;2024-01-07T07:31:51;16.40;;;12.02;;
12306;SDS011;6216;51.146;7.008;2024-01-07T07:34:19;16.35;;;11.95;;
12306;SDS011;6216;51.146;7.008;2024-01-07T07:36:48;17.10;;;11.70;;
12306;SDS011;6216;51.146;7.008;2024-01-07T07:39:16;13.55;;;11.40;;
12306;SDS011;6216;51.146;7.008;2024-01-07T07:41:44;14.70;;;12.25;;
12306;SDS011;6216;51.146;7.008;2024-01-07T07:44:12;14.23;;;11.10;;
12306;SDS011;6216;51.146;7.008;2024-01-07T07:46:40;14.48;;;11.95;;
12306;SDS011;6216;51.146;7.008;2024-01-07T07:49:08;14.55;;;12.05;;
12306;SDS011;6216;51.146;7.008;2024-01-07T07:51:38;15.43;;;12.15;;
12306;SDS011;6216;51.146;7.008;2024-01-07T07:54:07;16.60;;;12.02;;
12306;SDS011;6216;51.146;7.008;2024-01-07T07:56:35;16.98;;;12.43;;
12306;SDS011;6216;51.146;7.008;2024-01-07T07:59:03;15.27;;;12.02;;
12306;SDS011;6216;51.146;7.008;2024-01-07T08:01:31;16.55;;;12.35;;
12306;SDS011;6216;51.146;7.008;2024-01-07T08:03:59;19.27;;;13.02;;
12306;SDS011;6216;51.146;7.008;2024-01-07T08:06:29;16.50;;;12.50;;
12306;SDS011;6216;51.146;7.008;2024-01-07T08:08:57;16.55;;;12.82;;
12306;SDS011;6216;51.146;7.008;2024-01-07T08:11:26;17.75;;;12.93;;
12306;SDS011;6216;51.146;7.008;2024-01-07T08:13:55;17.40;;;13.00;;
12306;SDS011;6216;51.146;7.008;2024-01-07T08:16:24;18.45;;;12.90;;
12306;SDS011;6216;51.146;7.008;2024-01-07T08:18:52;18.08;;;13.98;;
12306;SDS011;6216;51.146;7.008;2024-01-07T08:21:22;17.90;;;13.20;;
12306;SDS011;6216;51.146;7.008;2024-01-07T08:23:51;20.88;;;15.52;;
12306;SDS011;6216;51.146;7.008;2024-01-07T08:26:19;17.38;;;13.20;;
12306;SDS011;6216;51.146;7.008;2024-01-07T08:28:48;17.40;;;13.32;;
12306;SDS011;6216;51.146;7.008;2024-01-07T08:31:16;20.60;;;14.85;;
12306;SDS011;6216;51.146;7.008;2024-01-07T08:33:44;17.77;;;13.38;;
12306;SDS011;6216;51.146;7.008;2024-01-07T08:36:12;18.45;;;14.02;;
12306;SDS011;6216;51.146;7.008;2024-01-07T08:38:40;18.70;;;13.23;;
12306;SDS011;6216;51.146;7.008;2024-01-07T08:41:08;18.23;;;12.65;;
12306;SDS011;6216;51.146;7.008;2024-01-07T08:43:36;15.80;;;11.90;;
12306;SDS011;6216;51.146;7.008;2024-01-07T08:46:06;15.02;;;11.13;;
12306;SDS011;6216;51.146;7.008;2024-01-07T08:48:34;11.85;;;9.73;;
12306;SDS011;6216;51.146;7.008;2024-01-07T08:51:03;12.98;;;10.40;;
12306;SDS011;6216;51.146;7.008;2024-01-07T08:53:31;13.70;;;10.70;;
12306;SDS011;6216;51.146;7.008;2024-01-07T08:55:59;13.63;;;10.65;;
12306;SDS011;6216;51.146;7.008;2024-01-07T08:58:26;13.18;;;9.95;;
12306;SDS011;6216;51.146;7.008;2024-01-07T09:00:54;12.38;;;9.88;;
12306;SDS011;6216;51.146;7.008;2024-01-07T09:03:24;12.13;;;10.43;;
12306;SDS011;6216;51.146;7.008;2024-01-07T09:05:52;11.60;;;9.63;;
12306;SDS011;6216;51.146;7.008;2024-01-07T09:08:20;10.52;;;8.77;;
12306;SDS011;6216;51.146;7.008;2024-01-07T09:10:49;10.27;;;8.43;;
12306;SDS011;6216;51.146;7.008;2024-01-07T09:13:16;9.30;;;8.07;;
12306;SDS011;6216;51.146;7.008;2024-01-07T09:15:44;9.80;;;8.43;;
12306;SDS011;6216;51.146;7.008;2024-01-07T09:18:13;9.55;;;8.30;;
12306;SDS011;6216;51.146;7.008;2024-01-07T09:20:42;8.52;;;7.72;;
12306;SDS011;6216;51.146;7.008;2024-01-07T09:23:10;7.40;;;6.60;;
12306;SDS011;6216;51.146;7.008;2024-01-07T09:25:39;7.90;;;7.10;;
12306;SDS011;6216;51.146;7.008;2024-01-07T09:28:07;11.07;;;8.40;;
12306;SDS011;6216;51.146;7.008;2024-01-07T09:30:35;7.65;;;6.93;;
12306;SDS011;6216;51.146;7.008;2024-01-07T09:33:03;5.90;;;5.40;;
12306;SDS011;6216;51.146;7.008;2024-01-07T09:35:31;7.22;;;6.47;;
12306;SDS011;6216;51.146;7.008;2024-01-07T09:38:01;6.80;;;6.10;;
12306;SDS011;6216;51.146;7.008;2024-01-07T09:40:30;6.75;;;6.00;;
12306;SDS011;6216;51.146;7.008;2024-01-07T09:42:58;8.20;;;6.32;;
12306;SDS011;6216;51.146;7.008;2024-01-07T09:45:26;8.70;;;6.82;;
12306;SDS011;6216;51.146;7.008;2024-01-07T09:47:56;7.80;;;7.00;;
12306;SDS011;6216;51.146;7.008;2024-01-07T09:50:24;7.55;;;6.55;;
12306;SDS011;6216;51.146;7.008;2024-01-07T09:52:52;9.88;;;7.28;;
12306;SDS011;6216;51.146;7.008;2024-01-07T09:55:27;8.88;;;7.05;;
12306;SDS011;6216;51.146;7.008;2024-01-07T09:57:58;8.57;;;7.72;;
12306;SDS011;6216;51.146;7.008;2024-01-07T10:00:27;9.00;;;8.05;;
12306;SDS011;6216;51.146;7.008;2024-01-07T10:02:56;10.85;;;7.88;;
12306;SDS011;6216;51.146;7.008;2024-01-07T10:05:24;11.25;;;8.50;;
12306;SDS011;6216;51.146;7.008;2024-01-07T10:07:52;10.27;;;8.75;;
12306;SDS011;6216;51.146;7.008;2024-01-07T10:10:23;10.90;;;8.70;;
12306;SDS011;6216;51.146;7.008;2024-01-07T10:12:52;12.20;;;9.73;;
12306;SDS011;6216;51.146;7.008;2024-01-07T10:15:23;11.15;;;9.68;;
12306;SDS011;6216;51.146;7.008;2024-01-07T10:17:54;9.43;;;8.43;;
12306;SDS011;6216;51.146;7.008;2024-01-07T10:20:22;9.15;;;8.13;;
12306;SDS011;6216;51.146;7.008;2024-01-07T10:22:50;10.32;;;9.23;;
12306;SDS011;6216;51.146;7.008;2024-01-07T10:25:19;10.75;;;9.02;;
12306;SDS011;6216;51.146;7.008;2024-01-07T10:27:46;10.95;;;7.65;;
12306;SDS011;6216;51.146;7.008;2024-01-07T10:30:17;9.65;;;8.63;;
12306;SDS011;6216;51.146;7.008;2024-01-07T10:32:45;14.07;;;9.45;;
12306;SDS011;6216;51.146;7.008;2024-01-07T10:35:13;15.27;;;8.77;;
12306;SDS011;6216;51.146;7.008;2024-01-07T10:37:45;12.88;;;8.77;;
12306;SDS011;6216;51.146;7.008;2024-01-07T10:40:13;10.82;;;8.00;;
12306;SDS011;6216;51.146;7.008;2024-01-07T10:42:41;11.35;;;8.05;;
12306;SDS011;6216;51.146;7.008;2024-01-07T10:45:11;9.52;;;7.72;;
12306;SDS011;6216;51.146;7.008;2024-01-07T10:47:42;8.57;;;7.57;;
12306;SDS011;6216;51.146;7.008;2024-01-07T10:50:15;8.55;;;7.32;;
12306;SDS011;6216;51.146;7.008;2024-01-07T10:52:47;12.05;;;8.13;;
12306;SDS011;6216;51.146;7.008;2024-01-07T10:55:17;9.80;;;7.88;;
12306;SDS011;6216;51.146;7.008;2024-01-07T10:57:47;10.75;;;8.10;;
12306;SDS011;6216;51.146;7.008;2024-01-07T11:00:16;9.52;;;7.93;;
12306;SDS011;6216;51.146;7.008;2024-01-07T11:02:53;11.38;;;8.27;;
12306;SDS011;6216;51.146;7.008;2024-01-07T11:05:29;11.45;;;6.75;;
12306;SDS011;6216;51.146;7.008;2024-01-07T11:08:11;9.23;;;6.65;;
12306;SDS011;6216;51.146;7.008;2024-01-07T11:10:46;7.70;;;6.35;;
12306;SDS011;6216;51.146;7.008;2024-01-07T11:13:31;8.38;;;6.82;;
12306;SDS011;6216;51.146;7.008;2024-01-07T11:16:01;9.60;;;7.50;;
12306;SDS011;6216;51.146;7.008;2024-01-07T11:18:31;8.10;;;6.53;;
12306;SDS011;6216;51.146;7.008;2024-01-07T11:21:01;7.90;;;7.10;;
12306;SDS011;6216;51.146;7.008;2024-01-07T11:23:30;8.15;;;6.80;;
12306;SDS011;6216;51.146;7.008;2024-01-07T11:26:00;9.23;;;6.28;;
12306;SDS011;6216;51.146;7.008;2024-01-07T11:28:45;9.50;;;6.07;;
12306;SDS011;6216;51.146;7.008;2024-01-07T11:31:14;8.57;;;6.30;;
12306;SDS011;6216;51.146;7.008;2024-01-07T11:33:45;7.40;;;6.18;;
12306;SDS011;6216;51.146;7.008;2024-01-07T11:36:14;7.38;;;5.90;;
12306;SDS011;6216;51.146;7.008;2024-01-07T11:38:43;8.40;;;6.63;;
12306;SDS011;6216;51.146;7.008;2024-01-07T11:41:13;8.05;;;6.53;;
12306;SDS011;6216;51.146;7.008;2024-01-07T11:43:53;9.98;;;6.80;;
12306;SDS011;6216;51.146;7.008;2024-01-07T11:46:21;8.48;;;6.18;;
12306;SDS011;6216;51.146;7.008;2024-01-07T11:48:52;7.75;;;6.07;;
12306;SDS011;6216;51.146;7.008;2024-01-07T11:51:24;8.02;;;5.63;;
12306;SDS011;6216;51.146;7.008;2024-01-07T11:53:53;6.50;;;5.85;;
12306;SDS011;6216;51.146;7.008;2024-01-07T11:56:21;8.23;;;6.30;;
12306;SDS011;6216;51.146;7.008;2024-01-07T11:58:49;7.68;;;6.10;;
12306;SDS011;6216;51.146;7.008;2024-01-07T12:01:17;8.30;;;6.60;;
12306;SDS011;6216;51.146;7.008;2024-01-07T12:03:46;5.78;;;5.20;;
12306;SDS011;6216;51.146;7.008;2024-01-07T12:06:15;6.95;;;5.05;;
12306;SDS011;6216;51.146;7.008;2024-01-07T12:08:43;6.75;;;5.45;;
12306;SDS011;6216;51.146;7.008;2024-01-07T12:11:12;8.77;;;6.32;;
12306;SDS011;6216;51.146;7.008;2024-01-07T12:13:41;5.43;;;4.88;;
12306;SDS011;6216;51.146;7.008;2024-01-07T12:16:10;5.65;;;5.05;;
12306;SDS011;6216;51.146;7.008;2024-01-07T12:18:38;6.68;;;5.43;;
12306;SDS011;6216;51.146;7.008;2024-01-07T12:21:07;6.22;;;4.30;;
12306;SDS011;6216;51.146;7.008;2024-01-07T12:23:36;5.70;;;4.25;;
12306;SDS011;6216;51.146;7.008;2024-01-07T12:26:09;5.65;;;4.90;;
12306;SDS011;6216;51.146;7.008;2024-01-07T12:28:38;4.90;;;4.47;;
12306;SDS011;6216;51.146;7.008;2024-01-07T12:31:06;5.15;;;4.55;;
12306;SDS011;6216;51.146;7.008;2024-01-07T12:33:36;8.30;;;4.70;;
12306;SDS011;6216;51.146;7.008;2024-01-07T12:36:06;5.35;;;4.35;;
12306;SDS011;6216;51.146;7.008;2024-01-07T12:38:37;5.60;;;4.38;;
12306;SDS011;6216;51.146;7.008;2024-01-07T12:41:05;4.82;;;4.43;;
12306;SDS011;6216;51.146;7.008;2024-01-07T12:43:33;4.47;;;3.97;;
12306;SDS011;6216;51.146;7.008;2024-01-07T12:46:01;4.60;;;3.60;;
12306;SDS011;6216;51.146;7.008;2024-01-07T12:48:32;4.72;;;4.28;;
12306;SDS011;6216;51.146;7.008;2024-01-07T12:51:00;4.82;;;4.43;;
12306;SDS011;6216;51.146;7.008;2024-01-07T12:53:28;4.80;;;4.00;;
12306;SDS011;6216;51.146;7.008;2024-01-07T12:55:58;5.80;;;4.38;;
12306;SDS011;6216;51.146;7.008;2024-01-07T12:58:26;4.45;;;4.05;;
12306;SDS011;6216;51.146;7.008;2024-01-07T13:00:53;4.78;;;4.30;;
12306;SDS011;6216;51.146;7.008;2024-01-07T13:03:21;5.30;;;4.05;;
12306;SDS011;6216;51.146;7.008;2024-01-07T13:05:51;6.03;;;4.80;;
12306;SDS011;6216;51.146;7.008;2024-01-07T13:08:19;5.75;;;4.78;;
12306;SDS011;6216;51.146;7.008;2024-01-07T13:10:48;7.55;;;5.22;;
12306;SDS011;6216;51.146;7.008;2024-01-07T13:13:18;6.35;;;5.03;;
12306;SDS011;6216;51.146;7.008;2024-01-07T13:15:46;5.70;;;4.38;;
12306;SDS011;6216;51.146;7.008;2024-01-07T13:18:14;4.80;;;4.30;;
12306;SDS011;6216;51.146;7.008;2024-01-07T13:20:42;4.38;;;3.97;;
12306;SDS011;6216;51.146;7.008;2024-01-07T13:23:10;4.22;;;3.83;;
12306;SDS011;6216;51.146;7.008;2024-01-07T13:25:38;5.07;;;4.25;;
12306;SDS011;6216;51.146;7.008;2024-01-07T13:28:06;5.38;;;4.32;;
12306;SDS011;6216;51.146;7.008;2024-01-07T13:30:39;4.75;;;4.03;;
12306;SDS011;6216;51.146;7.008;2024-01-07T13:33:08;4.20;;;3.90;;
12306;SDS011;6216;51.146;7.008;2024-01-07T13:35:36;4.55;;;4.15;;
12306;SDS011;6216;51.146;7.008;2024-01-07T13:38:04;4.60;;;4.13;;
12306;SDS011;6216;51.146;7.008;2024-01-07T13:40:32;5.07;;;4.57;;
12306;SDS011;6216;51.146;7.008;2024-01-07T13:43:00;4.70;;;4.22;;
12306;SDS011;6216;51.146;7.008;2024-01-07T13:45:29;4.53;;;3.72;;
12306;SDS011;6216;51.146;7.008;2024-01-07T13:47:58;4.63;;;4.00;;
12306;SDS011;6216;51.146;7.008;2024-01-07T13:50:26;6.07;;;3.95;;
12306;SDS011;6216;51.146;7.008;2024-01-07T13:52:54;4.45;;;4.05;;
12306;SDS011;6216;51.146;7.008;2024-01-07T13:55:22;4.68;;;4.28;;
12306;SDS011;6216;51.146;7.008;2024-01-07T13:57:50;5.32;;;4.35;;
12306;SDS011;6216;51.146;7.008;2024-01-07T14:00:18;4.10;;;3.70;;
12306;SDS011;6216;51.146;7.008;2024-01-07T14:02:46;5.03;;;4.10;;
12306;SDS011;6216;51.146;7.008;2024-01-07T14:05:17;3.97;;;3.60;;
12306;SDS011;6216;51.146;7.008;2024-01-07T14:07:46;4.32;;;3.80;;
12306;SDS011;6216;51.146;7.008;2024-01-07T14:10:14;4.60;;;3.60;;
12306;SDS011;6216;51.146;7.008;2024-01-07T14:12:45;3.65;;;3.25;;
12306;SDS011;6216;51.146;7.008;2024-01-07T14:15:13;5.10;;;3.85;;
12306;SDS011;6216;51.146;7.008;2024-01-07T14:17:43;4.47;;;3.17;;
12306;SDS011;6216;51.146;7.008;2024-01-07T14:20:11;3.45;;;3.05;;
12306;SDS011;6216;51.146;7.008;2024-01-07T14:22:41;3.58;;;2.63;;
12306;SDS011;6216;51.146;7.008;2024-01-07T14:25:08;3.03;;;2.72;;
12306;SDS011;6216;51.146;7.008;2024-01-07T14:27:36;3.80;;;3.05;;
12306;SDS011;6216;51.146;7.008;2024-01-07T14:30:05;3.38;;;2.88;;
12306;SDS011;6216;51.146;7.008;2024-01-07T14:32:33;3.30;;;3.00;;
12306;SDS011;6216;51.146;7.008;2024-01-07T14:35:03;3.85;;;2.65;;
12306;SDS011;6216;51.146;7.008;2024-01-07T14:37:31;3.92;;;3.33;;
12306;SDS011;6216;51.146;7.008;2024-01-07T14:40:00;3.75;;;2.70;;
12306;SDS011;6216;51.146;7.008;2024-01-07T14:42:30;3.90;;;2.95;;
12306;SDS011;6216;51.146;7.008;2024-01-07T14:44:58;2.90;;;2.50;;
12306;SDS011;6216;51.146;7.008;2024-01-07T14:47:26;3.50;;;2.78;;
12306;SDS011;6216;51.146;7.008;2024-01-07T14:49:54;3.08;;;2.78;;
12306;SDS011;6216;51.146;7.008;2024-01-07T14:52:23;3.47;;;2.80;;
12306;SDS011;6216;51.146;7.008;2024-01-07T14:54:52;3.15;;;2.88;;